map of FAT home
FAT - Airport
Location
City:  Fresno, California, United States
Name:Fresno Yosemite International Airport
ICAO:KFAT
IATA:FAT
FAA LID:FAT

Details
Type:Airport (Part 139 Class I)
Use:Public/Civil, International (customs landing rights)
Latitude:36°46'36"N (36.776556)
Longitude:119°43'08"W (-119.718832)
Datum:WGS 1984
Elevation:335 ft (102 m)
Variation:12.83°E (WMM2015 magnetic declination)
-0.09° annual change
Runways:2
Longest:9539 × 150 ft (2907 × 45.5 m), paved

Time
Time Zone:UTC-8 (DST-7)
Local Time:

Weather
METAR:KFAT 140153Z 00000KT 5SM HZ CLR 12/03 A3008 RMK AO2 SLP186 T01170028
TAF:KFAT 132328Z 1400/1424 VRB02KT 3SM HZ SKC

Related Locations
Nearby:
Farthest:ZSE: 11327 mi / 18229 km
St-Pierre (St-Pierre de la Réunion) [Pierrefonds], RE

Find:

   beyond  
but within

Other Information
Maps:
Delays:
NOTAMs:
Links:
Sources:

  
flag of United States
flag of California
flag of Fresno
  

Airport Diagram

Airport diagram for FAT

Airport diagram PDF

Sectional Chart

Flight Planning
at skyvector.com

Satellite Image

Google Maps Satellite view

 

Copyright © 2004-2017 Karl L. Swartz. All rights reserved.
The Great Circle Mapper name and logo are trademarks of the Great Circle Mapper.
All other trademarks mentioned herein belong to their respective owners.
Please see credits for attibutions and further copyright information.

  Follow gcmap on Facebook Follow gcmap on Twitter Follow gcmap on Google+ GCmap on LinkedIn

hCard Microformat

Geo Microformat